createdAt,value
2019-02-22T00:00:54.045Z,0
2019-02-22T00:01:54.039Z,0
2019-02-22T00:02:55.363Z,0
2019-02-22T00:03:54.262Z,0
2019-02-22T00:04:53.757Z,0
2019-02-22T00:05:54.278Z,0
2019-02-22T00:06:54.007Z,0
2019-02-22T00:07:54.003Z,0
2019-02-22T00:08:54.239Z,0
2019-02-22T00:09:59.275Z,0
2019-02-22T00:10:54.015Z,0
2019-02-22T00:11:53.981Z,0
2019-02-22T00:12:54.213Z,0
2019-02-22T00:13:54.220Z,0
2019-02-22T00:14:54.196Z,0
2019-02-22T00:15:54.441Z,0
2019-02-22T00:16:53.702Z,0
2019-02-22T00:17:54.218Z,0
2019-02-22T00:18:54.452Z,0
2019-02-22T00:19:55.923Z,0
2019-02-22T00:20:54.191Z,0
2019-02-22T00:21:53.935Z,0
2019-02-22T00:22:54.199Z,0
2019-02-22T00:23:54.190Z,0
2019-02-22T00:24:53.908Z,0
2019-02-22T00:25:53.651Z,0
2019-02-22T00:26:54.383Z,0
2019-02-22T00:27:54.191Z,0
2019-02-22T00:28:54.393Z,0
2019-02-22T00:29:53.520Z,0
2019-02-22T00:30:54.232Z,0
2019-02-22T00:31:53.883Z,0
2019-02-22T00:32:54.120Z,0
2019-02-22T00:33:54.090Z,0
2019-02-22T00:34:54.126Z,0
2019-02-22T00:35:54.454Z,0
2019-02-22T00:36:54.270Z,0
2019-02-22T00:37:54.090Z,0
2019-02-22T00:38:54.417Z,0
2019-02-22T00:39:53.597Z,0
2019-02-22T00:40:54.084Z,0
2019-02-22T00:41:53.829Z,0
2019-02-22T00:42:54.971Z,0
2019-02-22T00:43:54.340Z,0
2019-02-22T00:44:54.063Z,0
2019-02-22T00:45:54.343Z,0
2019-02-22T00:46:54.038Z,0
2019-02-22T00:47:54.300Z,0
2019-02-22T00:48:54.041Z,0
2019-02-22T00:49:53.797Z,0
2019-02-22T00:50:53.770Z,0
2019-02-22T00:51:53.773Z,0
2019-02-22T00:52:53.777Z,0
2019-02-22T00:53:54.014Z,0
2019-02-22T00:54:54.262Z,0
2019-02-22T00:55:53.986Z,0
2019-02-22T00:56:53.741Z,0
2019-02-22T00:57:53.992Z,0
2019-02-22T00:58:53.740Z,0
2019-02-22T00:59:53.718Z,0
2019-02-22T01:00:53.997Z,0
2019-02-22T01:01:53.966Z,0
2019-02-22T01:02:53.710Z,0
2019-02-22T01:03:53.699Z,0
2019-02-22T01:04:54.014Z,0
2019-02-22T01:05:53.457Z,0
2019-02-22T01:06:53.704Z,0
2019-02-22T01:07:53.979Z,0
2019-02-22T01:08:53.426Z,0
2019-02-22T01:09:53.450Z,0
2019-02-22T01:10:53.929Z,0
2019-02-22T01:11:53.923Z,0
2019-02-22T01:12:53.653Z,0
2019-02-22T01:13:53.654Z,0
2019-02-22T01:14:53.917Z,0
2019-02-22T01:15:53.908Z,0
2019-02-22T01:16:53.656Z,0
2019-02-22T01:17:54.207Z,0
2019-02-22T01:18:53.638Z,0
2019-02-22T01:19:53.405Z,0
2019-02-22T01:21:04.011Z,0
2019-02-22T01:21:53.629Z,0
2019-02-22T01:22:53.844Z,0
2019-02-22T01:23:54.121Z,0
2019-02-22T01:24:53.602Z,0
2019-02-22T01:25:53.362Z,0
2019-02-22T01:26:53.864Z,0
2019-02-22T01:27:53.604Z,0
2019-02-22T01:28:54.109Z,0
2019-02-22T01:29:53.593Z,0
2019-02-22T01:30:53.597Z,0
2019-02-22T01:31:53.340Z,0
2019-02-22T01:32:53.983Z,0
2019-02-22T01:33:56.549Z,0
2019-02-22T01:34:53.910Z,0
2019-02-22T01:35:53.597Z,0
2019-02-22T01:36:54.092Z,0
2019-02-22T01:37:53.060Z,0
2019-02-22T01:38:53.301Z,0
2019-02-22T01:39:53.827Z,0
2019-02-22T01:40:53.540Z,0
2019-02-22T01:41:53.539Z,0
2019-02-22T01:42:54.005Z,0
2019-02-22T01:43:53.511Z,0
2019-02-22T01:44:53.544Z,0
2019-02-22T01:45:53.749Z,0
2019-02-22T01:46:53.977Z,0
2019-02-22T01:47:53.735Z,0
2019-02-22T01:48:53.718Z,0
2019-02-22T01:49:53.269Z,0
2019-02-22T01:50:53.350Z,0
2019-02-22T01:51:53.210Z,0
2019-02-22T01:52:53.221Z,0
2019-02-22T01:53:56.507Z,0
2019-02-22T01:54:53.191Z,0
2019-02-22T01:55:53.931Z,0
2019-02-22T01:56:53.452Z,0
2019-02-22T01:57:53.447Z,0
2019-02-22T01:58:58.126Z,0
2019-02-22T01:59:53.681Z,0
2019-02-22T02:00:53.685Z,0
2019-02-22T02:01:53.682Z,0
2019-02-22T02:02:53.911Z,0
2019-02-22T02:03:53.907Z,0
2019-02-22T02:04:53.472Z,0
2019-02-22T02:05:53.902Z,0
2019-02-22T02:06:53.912Z,0
2019-02-22T02:07:53.627Z,0
2019-02-22T02:08:53.636Z,0
2019-02-22T02:09:53.643Z,0
2019-02-22T02:11:03.614Z,0
2019-02-22T02:11:53.622Z,0
2019-02-22T02:12:53.412Z,0
2019-02-22T02:13:53.488Z,0
2019-02-22T02:14:53.846Z,0
2019-02-22T02:15:53.857Z,0
2019-02-22T02:16:53.856Z,0
2019-02-22T02:17:53.601Z,0
2019-02-22T02:18:53.586Z,0
2019-02-22T02:19:53.576Z,0
2019-02-22T02:20:53.909Z,0
2019-02-22T02:21:53.093Z,0
2019-02-22T02:22:53.568Z,0
2019-02-22T02:23:53.564Z,0
2019-02-22T02:24:53.917Z,0
2019-02-22T02:25:53.815Z,0
2019-02-22T02:26:53.324Z,0
2019-02-22T02:27:53.806Z,0
2019-02-22T02:28:53.963Z,0
2019-02-22T02:29:53.779Z,0
2019-02-22T02:30:53.788Z,0
2019-02-22T02:31:53.538Z,0
2019-02-22T02:32:53.758Z,0
2019-02-22T02:33:53.516Z,0
2019-02-22T02:34:53.568Z,0
2019-02-22T02:35:53.622Z,0
2019-02-22T02:36:53.520Z,0
2019-02-22T02:37:53.244Z,0
2019-02-22T02:38:53.827Z,0
2019-02-22T02:39:53.050Z,0
2019-02-22T02:41:06.775Z,0
2019-02-22T02:41:53.498Z,0
2019-02-22T02:42:53.712Z,0
2019-02-22T02:43:52.973Z,0
2019-02-22T02:44:53.481Z,0
2019-02-22T02:45:53.759Z,0
2019-02-22T02:46:53.486Z,0
2019-02-22T02:47:53.493Z,0
2019-02-22T02:48:53.460Z,0
2019-02-22T02:49:53.681Z,0
2019-02-22T02:50:53.700Z,0
2019-02-22T02:51:53.438Z,0
2019-02-22T02:52:53.438Z,0
2019-02-22T02:53:53.674Z,0
2019-02-22T02:54:53.171Z,0
2019-02-22T02:55:53.662Z,0
2019-02-22T02:56:55.673Z,0
2019-02-22T02:57:53.654Z,0
2019-02-22T02:58:53.430Z,0
2019-02-22T02:59:53.390Z,0
2019-02-22T03:00:53.554Z,0
2019-02-22T03:01:53.444Z,0
2019-02-22T03:02:53.383Z,0
2019-02-22T03:03:53.628Z,0
2019-02-22T03:04:53.441Z,0
2019-02-22T03:05:53.630Z,0
2019-02-22T03:06:53.641Z,0
2019-02-22T03:07:53.421Z,0
2019-02-22T03:08:53.615Z,0
2019-02-22T03:09:53.420Z,0
2019-02-22T03:10:53.600Z,0
2019-02-22T03:11:53.446Z,0
2019-02-22T03:12:53.360Z,0
2019-02-22T03:13:53.370Z,0
2019-02-22T03:14:53.315Z,0
2019-02-22T03:15:53.571Z,0
2019-02-22T03:16:53.326Z,0
2019-02-22T03:17:53.672Z,0
2019-02-22T03:18:53.583Z,0
2019-02-22T03:19:53.093Z,0
2019-02-22T03:20:53.574Z,0
2019-02-22T03:21:53.571Z,0
2019-02-22T03:22:53.348Z,0
2019-02-22T03:23:53.078Z,0
2019-02-22T03:24:56.146Z,0
2019-02-22T03:25:53.546Z,0
2019-02-22T03:26:53.304Z,0
2019-02-22T03:27:53.293Z,0
2019-02-22T03:28:53.284Z,0
2019-02-22T03:29:53.516Z,0
2019-02-22T03:30:53.083Z,0
2019-02-22T03:31:53.551Z,0
2019-02-22T03:32:53.587Z,0
2019-02-22T03:33:53.547Z,0
2019-02-22T03:34:53.252Z,0
2019-02-22T03:35:53.240Z,0
2019-02-22T03:36:53.498Z,0
2019-02-22T03:37:53.260Z,0
2019-02-22T03:38:53.491Z,0
2019-02-22T03:39:53.513Z,0
2019-02-22T03:40:53.240Z,0
2019-02-22T03:41:53.006Z,0
2019-02-22T03:42:53.462Z,0
2019-02-22T03:43:53.463Z,0
2019-02-22T03:44:53.209Z,0
2019-02-22T03:45:53.206Z,0
2019-02-22T03:46:53.197Z,0
2019-02-22T03:47:53.200Z,0
2019-02-22T03:48:53.291Z,0
2019-02-22T03:49:53.196Z,0
2019-02-22T03:50:53.443Z,0
2019-02-22T03:51:53.443Z,0
2019-02-22T03:52:53.187Z,0
2019-02-22T03:53:53.156Z,0
2019-02-22T03:54:53.403Z,0
2019-02-22T03:55:52.921Z,0
2019-02-22T03:56:53.163Z,0
2019-02-22T03:57:52.922Z,0
2019-02-22T03:58:52.918Z,0
2019-02-22T03:59:55.815Z,0
2019-02-22T04:00:53.137Z,0
2019-02-22T04:01:53.402Z,0
2019-02-22T04:02:53.150Z,0
2019-02-22T04:03:53.391Z,0
2019-02-22T04:04:53.124Z,0
2019-02-22T04:05:53.130Z,0
2019-02-22T04:06:53.116Z,0
2019-02-22T04:07:53.118Z,0
2019-02-22T04:08:53.118Z,0
2019-02-22T04:09:52.619Z,0
2019-02-22T04:10:53.124Z,0
2019-02-22T04:11:55.439Z,0
2019-02-22T04:12:53.080Z,0
2019-02-22T04:13:53.079Z,0
2019-02-22T04:14:53.095Z,0
2019-02-22T04:15:53.320Z,0
2019-02-22T04:16:52.818Z,0
2019-02-22T04:17:52.861Z,0
2019-02-22T04:18:52.301Z,0
2019-02-22T04:19:53.051Z,0
2019-02-22T04:20:52.805Z,0
2019-02-22T04:21:52.860Z,0
2019-02-22T04:22:53.602Z,0
2019-02-22T04:23:52.632Z,0
2019-02-22T04:24:52.831Z,0
2019-02-22T04:25:53.050Z,0
2019-02-22T04:26:53.088Z,0
2019-02-22T04:27:53.265Z,0
2019-02-22T04:28:53.567Z,0
2019-02-22T04:29:53.020Z,0
2019-02-22T04:30:52.770Z,0
2019-02-22T04:31:53.039Z,0
2019-02-22T04:32:52.757Z,0
2019-02-22T04:33:52.487Z,0
2019-02-22T04:34:52.997Z,0
2019-02-22T04:35:52.720Z,0
2019-02-22T04:36:53.001Z,0
2019-02-22T04:37:52.986Z,0
2019-02-22T04:38:52.970Z,0
2019-02-22T04:39:52.983Z,0
2019-02-22T04:40:52.466Z,0
2019-02-22T04:42:04.385Z,0
2019-02-22T04:42:52.666Z,0
2019-02-22T04:43:52.455Z,0
2019-02-22T04:44:52.687Z,0
2019-02-22T04:45:53.026Z,0
2019-02-22T04:46:52.979Z,0
2019-02-22T04:47:52.906Z,0
2019-02-22T04:48:52.924Z,0
2019-02-22T04:49:52.650Z,0
2019-02-22T04:50:52.902Z,0
2019-02-22T04:51:52.494Z,0
2019-02-22T04:52:53.131Z,0
2019-02-22T04:53:52.401Z,0
2019-02-22T04:54:52.617Z,0
2019-02-22T04:55:52.626Z,0
2019-02-22T04:56:52.916Z,0
2019-02-22T04:57:52.840Z,0
2019-02-22T04:58:53.106Z,0
2019-02-22T04:59:52.864Z,0
2019-02-22T05:00:52.874Z,0
2019-02-22T05:01:52.607Z,0
2019-02-22T05:02:52.848Z,0
2019-02-22T05:03:52.594Z,0
2019-02-22T05:04:52.813Z,0
2019-02-22T05:05:52.546Z,0
2019-02-22T05:06:52.833Z,0
2019-02-22T05:07:52.915Z,0
2019-02-22T05:08:52.309Z,0
2019-02-22T05:09:52.593Z,0
2019-02-22T05:10:52.573Z,0
2019-02-22T05:11:52.801Z,0
2019-02-22T05:12:52.783Z,0
2019-02-22T05:13:52.792Z,0
2019-02-22T05:14:52.324Z,0
2019-02-22T05:15:52.790Z,0
2019-02-22T05:16:52.263Z,0
2019-02-22T05:17:52.788Z,0
2019-02-22T05:18:52.807Z,0
2019-02-22T05:19:53.010Z,0
2019-02-22T05:20:52.496Z,0
2019-02-22T05:21:52.482Z,0
2019-02-22T05:23:03.230Z,0
2019-02-22T05:23:52.722Z,0
2019-02-22T05:24:52.736Z,0
2019-02-22T05:25:52.999Z,0
2019-02-22T05:26:52.722Z,0
2019-02-22T05:27:51.971Z,0
2019-02-22T05:28:52.492Z,0
2019-02-22T05:29:53.017Z,0
2019-02-22T05:30:52.487Z,0
2019-02-22T05:31:52.712Z,0
2019-02-22T05:32:52.671Z,0
2019-02-22T05:33:52.187Z,0
2019-02-22T05:34:52.687Z,0
2019-02-22T05:35:52.404Z,0
2019-02-22T05:36:53.669Z,0
2019-02-22T05:37:52.654Z,0
2019-02-22T05:38:52.151Z,0
2019-02-22T05:39:52.884Z,0
2019-02-22T05:40:52.371Z,0
2019-02-22T05:41:52.152Z,0
2019-02-22T05:42:52.116Z,0
2019-02-22T05:43:52.625Z,0
2019-02-22T05:44:52.866Z,0
2019-02-22T05:45:52.897Z,0
2019-02-22T05:47:04.677Z,0
2019-02-22T05:47:52.641Z,0
2019-02-22T05:48:52.583Z,0
2019-02-22T05:49:52.327Z,0
2019-02-22T05:50:52.590Z,0
2019-02-22T05:51:52.833Z,0
2019-02-22T05:52:52.899Z,0
2019-02-22T05:53:52.955Z,0
2019-02-22T05:54:52.816Z,0
2019-02-22T05:55:53.645Z,0
2019-02-22T05:56:55.052Z,0
2019-02-22T05:57:52.897Z,0
2019-02-22T05:58:52.816Z,0
2019-02-22T05:59:52.779Z,0
2019-02-22T06:00:52.333Z,0
2019-02-22T06:01:52.984Z,0
2019-02-22T06:02:52.412Z,0
2019-02-22T06:03:52.041Z,0
2019-02-22T06:04:52.612Z,0
2019-02-22T06:05:52.796Z,0
2019-02-22T06:06:52.281Z,0
2019-02-22T06:07:52.880Z,0
2019-02-22T06:08:52.492Z,0
2019-02-22T06:09:52.790Z,0
2019-02-22T06:10:52.471Z,0
2019-02-22T06:11:52.251Z,0
2019-02-22T06:12:52.205Z,0
2019-02-22T06:13:51.986Z,0
2019-02-22T06:14:52.570Z,0
2019-02-22T06:15:52.814Z,0
2019-02-22T06:16:52.336Z,0
2019-02-22T06:17:52.798Z,0
2019-02-22T06:18:51.921Z,0
2019-02-22T06:19:52.169Z,0
2019-02-22T06:20:51.698Z,0
2019-02-22T06:21:52.403Z,0
2019-02-22T06:22:52.408Z,0
2019-02-22T06:23:52.399Z,0
2019-02-22T06:24:52.168Z,0
2019-02-22T06:25:52.454Z,0
2019-02-22T06:26:52.950Z,0
2019-02-22T06:27:52.365Z,0
2019-02-22T06:28:52.351Z,0
2019-02-22T06:29:54.638Z,0
2019-02-22T06:30:52.111Z,0
2019-02-22T06:31:52.343Z,0
2019-02-22T06:32:52.773Z,0
2019-02-22T06:33:51.874Z,0
2019-02-22T06:34:52.104Z,0
2019-02-22T06:35:52.341Z,0
2019-02-22T06:37:03.568Z,0
2019-02-22T06:37:52.671Z,0
2019-02-22T06:38:53.941Z,0
2019-02-22T06:39:52.945Z,0
2019-02-22T06:40:55.239Z,5
2019-02-22T06:41:52.140Z,5
2019-02-22T06:42:55.199Z,5
2019-02-22T06:43:52.388Z,5
2019-02-22T06:44:52.281Z,5
2019-02-22T06:45:52.102Z,10
2019-02-22T06:46:52.051Z,10
2019-02-22T06:47:52.612Z,10
2019-02-22T06:48:52.020Z,10
2019-02-22T06:49:54.245Z,10
2019-02-22T06:50:51.799Z,10
2019-02-22T06:51:51.812Z,10
2019-02-22T06:52:51.792Z,10
2019-02-22T06:53:51.975Z,10
2019-02-22T06:54:52.012Z,15
2019-02-22T06:55:51.747Z,15
2019-02-22T06:56:52.229Z,15
2019-02-22T06:57:51.949Z,10
2019-02-22T06:58:51.966Z,15
2019-02-22T06:59:51.975Z,10
2019-02-22T07:00:51.957Z,10
2019-02-22T07:01:54.802Z,10
2019-02-22T07:02:52.415Z,10
2019-02-22T07:03:52.417Z,10
2019-02-22T07:04:52.308Z,10
2019-02-22T07:05:52.244Z,10
2019-02-22T07:06:51.974Z,10
2019-02-22T07:07:51.684Z,10
2019-02-22T07:08:52.472Z,10
2019-02-22T07:09:51.665Z,10
2019-02-22T07:10:52.255Z,5
2019-02-22T07:11:52.168Z,5
2019-02-22T07:13:03.556Z,5
2019-02-22T07:13:52.146Z,10
2019-02-22T07:14:52.376Z,10
2019-02-22T07:15:51.615Z,10
2019-02-22T07:16:52.155Z,10
2019-02-22T07:17:52.125Z,10
2019-02-22T07:18:54.394Z,15
2019-02-22T07:19:52.409Z,15
2019-02-22T07:20:52.238Z,15
2019-02-22T07:22:01.968Z,15
2019-02-22T07:22:52.080Z,15
2019-02-22T07:23:52.370Z,10
2019-02-22T07:24:52.138Z,10
2019-02-22T07:25:52.064Z,10
2019-02-22T07:26:52.320Z,15
2019-02-22T07:27:52.295Z,15
2019-02-22T07:28:52.286Z,15
2019-02-22T07:29:51.791Z,15
2019-02-22T07:30:52.333Z,15
2019-02-22T07:31:52.089Z,15
2019-02-22T07:32:52.978Z,15
2019-02-22T07:33:52.108Z,15
2019-02-22T07:34:51.526Z,15
2019-02-22T07:35:51.784Z,15
2019-02-22T07:36:51.797Z,15
2019-02-22T07:37:52.274Z,20
2019-02-22T07:38:52.285Z,20
2019-02-22T07:39:51.782Z,20
2019-02-22T07:40:51.850Z,20
2019-02-22T07:41:51.761Z,20
2019-02-22T07:42:51.776Z,20
2019-02-22T07:43:51.752Z,20
2019-02-22T07:44:52.101Z,15
2019-02-22T07:45:51.627Z,20
2019-02-22T07:46:52.016Z,20
2019-02-22T07:47:51.718Z,25
2019-02-22T07:48:51.700Z,25
2019-02-22T07:49:51.959Z,25
2019-02-22T07:51:03.402Z,25
2019-02-22T07:51:51.676Z,25
2019-02-22T07:52:54.956Z,20
2019-02-22T07:53:52.181Z,20
2019-02-22T07:54:51.946Z,25
2019-02-22T07:55:51.664Z,30
2019-02-22T07:56:51.979Z,30
2019-02-22T07:57:51.602Z,30
2019-02-22T07:58:51.156Z,30
2019-02-22T07:59:51.926Z,30
2019-02-22T08:00:51.908Z,30
2019-02-22T08:01:57.185Z,30
2019-02-22T08:02:52.198Z,30
2019-02-22T08:03:51.678Z,30
2019-02-22T08:04:51.919Z,35
2019-02-22T08:05:51.950Z,50
2019-02-22T08:06:51.691Z,50
2019-02-22T08:07:52.097Z,55
2019-02-22T08:08:55.040Z,55
2019-02-22T08:09:51.858Z,60
2019-02-22T08:10:52.305Z,65
2019-02-22T08:11:54.071Z,70
2019-02-22T08:12:51.569Z,70
2019-02-22T08:13:51.811Z,70
2019-02-22T08:14:51.590Z,75
2019-02-22T08:15:51.595Z,75
2019-02-22T08:16:52.090Z,75
2019-02-22T08:17:52.081Z,80
2019-02-22T08:19:03.331Z,85
2019-02-22T08:19:52.076Z,90
2019-02-22T08:20:51.532Z,90
2019-02-22T08:21:51.507Z,80
2019-02-22T08:22:52.044Z,75
2019-02-22T08:23:51.823Z,70
2019-02-22T08:24:52.020Z,70
2019-02-22T08:25:51.737Z,75
2019-02-22T08:26:51.248Z,80
2019-02-22T08:28:03.243Z,95
2019-02-22T08:28:51.992Z,105
2019-02-22T08:29:52.040Z,115
2019-02-22T08:30:52.009Z,125
2019-02-22T08:31:51.750Z,135
2019-02-22T08:32:52.001Z,135
2019-02-22T08:33:50.963Z,140
2019-02-22T08:34:52.890Z,140
2019-02-22T08:35:51.789Z,150
2019-02-22T08:36:51.698Z,150
2019-02-22T08:37:51.960Z,160
2019-02-22T08:38:51.997Z,165
2019-02-22T08:40:04.888Z,160
2019-02-22T08:40:51.929Z,165
2019-02-22T08:41:51.992Z,160
2019-02-22T08:42:51.915Z,160
2019-02-22T08:43:51.667Z,160
2019-02-22T08:44:51.733Z,160
2019-02-22T08:45:51.923Z,160
2019-02-22T08:46:51.531Z,155
2019-02-22T08:47:51.920Z,160
2019-02-22T08:48:51.677Z,150
2019-02-22T08:49:51.690Z,145
2019-02-22T08:50:51.683Z,145
2019-02-22T08:51:51.529Z,150
2019-02-22T08:52:51.834Z,145
2019-02-22T08:53:51.646Z,145
2019-02-22T08:54:56.430Z,145
2019-02-22T08:55:52.681Z,145
2019-02-22T08:56:51.472Z,145
2019-02-22T08:57:51.378Z,150
2019-02-22T08:58:51.634Z,165
2019-02-22T08:59:51.877Z,180
2019-02-22T09:00:51.898Z,185
2019-02-22T09:01:51.924Z,180
2019-02-22T09:02:51.374Z,180
2019-02-22T09:04:00.389Z,180
2019-02-22T09:04:51.543Z,180
2019-02-22T09:05:51.836Z,165
2019-02-22T09:06:54.771Z,165
2019-02-22T09:07:51.863Z,155
2019-02-22T09:08:51.878Z,145
2019-02-22T09:09:51.866Z,145
2019-02-22T09:11:02.957Z,140
2019-02-22T09:11:51.828Z,140
2019-02-22T09:12:51.652Z,130
2019-02-22T09:13:53.475Z,140
2019-02-22T09:14:51.820Z,145
2019-02-22T09:15:51.846Z,140
2019-02-22T09:16:51.825Z,135
2019-02-22T09:17:51.067Z,125
2019-02-22T09:18:51.563Z,145
2019-02-22T09:19:51.336Z,150
2019-02-22T09:20:51.791Z,150
2019-02-22T09:21:51.553Z,150
2019-02-22T09:22:51.302Z,145
2019-02-22T09:23:51.370Z,130
2019-02-22T09:24:51.857Z,115
2019-02-22T09:25:51.783Z,105
2019-02-22T09:26:51.524Z,105
2019-02-22T09:27:52.006Z,110
2019-02-22T09:28:51.841Z,110
2019-02-22T09:30:02.936Z,115
2019-02-22T09:30:51.499Z,120
2019-02-22T09:31:51.293Z,130
2019-02-22T09:32:51.777Z,145
2019-02-22T09:33:50.995Z,150
2019-02-22T09:34:53.114Z,155
2019-02-22T09:35:51.847Z,155
2019-02-22T09:36:51.833Z,155
2019-02-22T09:37:51.254Z,155
2019-02-22T09:38:51.238Z,160
2019-02-22T09:39:51.478Z,155
2019-02-22T09:40:51.728Z,155
2019-02-22T09:41:52.091Z,150
2019-02-22T09:42:51.224Z,165
2019-02-22T09:44:02.029Z,160
2019-02-22T09:44:51.470Z,155
2019-02-22T09:45:51.700Z,150
2019-02-22T09:46:51.740Z,155
2019-02-22T09:47:51.206Z,160
2019-02-22T09:48:51.847Z,160
2019-02-22T09:49:51.758Z,165
2019-02-22T09:50:51.446Z,165
2019-02-22T09:51:51.443Z,160
2019-02-22T09:52:51.193Z,160
2019-02-22T09:53:51.516Z,165
2019-02-22T09:54:51.783Z,175
2019-02-22T09:55:51.425Z,185
2019-02-22T09:56:53.455Z,190
2019-02-22T09:57:51.172Z,195
2019-02-22T09:58:51.502Z,195
2019-02-22T09:59:51.644Z,200
2019-02-22T10:00:52.142Z,200
2019-02-22T10:01:51.746Z,205
2019-02-22T10:02:54.241Z,205
2019-02-22T10:03:51.150Z,200
2019-02-22T10:05:02.004Z,200
2019-02-22T10:05:51.411Z,195
2019-02-22T10:06:51.403Z,185
2019-02-22T10:07:51.153Z,165
2019-02-22T10:08:51.392Z,160
2019-02-22T10:09:51.661Z,165
2019-02-22T10:10:51.440Z,165
2019-02-22T10:11:51.614Z,165
2019-02-22T10:12:51.558Z,165
2019-02-22T10:13:51.118Z,160
2019-02-22T10:14:51.607Z,160
2019-02-22T10:15:51.824Z,165
2019-02-22T10:16:51.389Z,170
2019-02-22T10:17:51.370Z,175
2019-02-22T10:18:51.553Z,190
2019-02-22T10:19:51.515Z,195
2019-02-22T10:20:51.099Z,205
2019-02-22T10:21:51.107Z,205
2019-02-22T10:22:51.360Z,200
2019-02-22T10:23:51.137Z,210
2019-02-22T10:24:51.433Z,200
2019-02-22T10:25:51.114Z,190
2019-02-22T10:26:50.851Z,175
2019-02-22T10:27:51.136Z,180
2019-02-22T10:28:50.873Z,170
2019-02-22T10:29:51.331Z,175
2019-02-22T10:30:51.558Z,180
2019-02-22T10:31:51.380Z,185
2019-02-22T10:32:51.838Z,195
2019-02-22T10:33:51.867Z,210
2019-02-22T10:34:51.831Z,205
2019-02-22T10:35:51.809Z,205
2019-02-22T10:36:55.054Z,215
2019-02-22T10:37:51.310Z,215
2019-02-22T10:38:51.306Z,240
2019-02-22T10:39:51.373Z,215
2019-02-22T10:40:51.309Z,205
2019-02-22T10:41:51.539Z,200
2019-02-22T10:42:51.362Z,195
2019-02-22T10:43:51.336Z,225
2019-02-22T10:44:51.316Z,205
2019-02-22T10:45:51.583Z,210
2019-02-22T10:46:51.045Z,220
2019-02-22T10:47:51.065Z,240
2019-02-22T10:48:51.287Z,280
2019-02-22T10:49:51.628Z,275
2019-02-22T10:50:51.029Z,285
2019-02-22T10:51:51.142Z,250
2019-02-22T10:53:01.402Z,255
2019-02-22T10:53:51.022Z,265
2019-02-22T10:54:51.012Z,250
2019-02-22T10:55:51.282Z,205
2019-02-22T10:56:51.507Z,180
2019-02-22T10:57:50.781Z,175
2019-02-22T10:58:51.262Z,170
2019-02-22T10:59:51.029Z,175
2019-02-22T11:00:51.855Z,175
2019-02-22T11:01:51.276Z,180
2019-02-22T11:02:50.779Z,185
2019-02-22T11:03:51.506Z,180
2019-02-22T11:04:50.753Z,180
2019-02-22T11:05:51.242Z,175
2019-02-22T11:06:50.747Z,175
2019-02-22T11:07:51.244Z,170
2019-02-22T11:08:50.994Z,155
2019-02-22T11:09:51.212Z,150
2019-02-22T11:10:51.387Z,155
2019-02-22T11:11:51.548Z,155
2019-02-22T11:12:51.459Z,155
2019-02-22T11:13:50.715Z,170
2019-02-22T11:14:50.970Z,175
2019-02-22T11:15:50.957Z,180
2019-02-22T11:16:51.258Z,185
2019-02-22T11:17:51.497Z,190
2019-02-22T11:18:51.592Z,195
2019-02-22T11:19:51.781Z,200
2019-02-22T11:20:50.955Z,200
2019-02-22T11:21:50.952Z,205
2019-02-22T11:22:50.959Z,205
2019-02-22T11:23:50.935Z,205
2019-02-22T11:24:51.228Z,205
2019-02-22T11:25:51.189Z,205
2019-02-22T11:26:51.184Z,210
2019-02-22T11:27:51.192Z,205
2019-02-22T11:28:51.196Z,195
2019-02-22T11:29:53.915Z,190
2019-02-22T11:30:50.680Z,190
2019-02-22T11:31:51.796Z,185
2019-02-22T11:32:50.419Z,180
2019-02-22T11:33:51.418Z,180
2019-02-22T11:34:51.153Z,185
2019-02-22T11:35:51.154Z,195
2019-02-22T11:36:51.175Z,200
2019-02-22T11:37:50.909Z,200
2019-02-22T11:38:50.915Z,210
2019-02-22T11:39:51.540Z,220
2019-02-22T11:40:50.937Z,230
2019-02-22T11:41:50.671Z,225
2019-02-22T11:42:50.896Z,230
2019-02-22T11:43:51.157Z,220
2019-02-22T11:44:51.149Z,230
2019-02-22T11:45:52.431Z,225
2019-02-22T11:46:51.158Z,220
2019-02-22T11:47:50.665Z,220
2019-02-22T11:48:50.896Z,220
2019-02-22T11:49:51.142Z,230
2019-02-22T11:50:51.116Z,230
2019-02-22T11:51:50.881Z,240
2019-02-22T11:52:51.130Z,230
2019-02-22T11:53:51.401Z,240
2019-02-22T11:54:50.915Z,230
2019-02-22T11:55:50.884Z,240
2019-02-22T11:56:51.362Z,235
2019-02-22T11:57:50.894Z,220
2019-02-22T11:58:50.877Z,230
2019-02-22T11:59:50.884Z,245
2019-02-22T12:00:51.104Z,235
2019-02-22T12:01:51.101Z,235
2019-02-22T12:02:52.092Z,245
2019-02-22T12:03:50.616Z,245
2019-02-22T12:04:50.840Z,280
2019-02-22T12:05:51.091Z,270
2019-02-22T12:06:51.338Z,260
2019-02-22T12:07:50.847Z,250
2019-02-22T12:08:50.852Z,240
2019-02-22T12:09:51.106Z,235
2019-02-22T12:10:51.336Z,215
2019-02-22T12:11:51.359Z,190
2019-02-22T12:12:50.365Z,155
2019-02-22T12:13:50.591Z,160
2019-02-22T12:15:00.615Z,160
2019-02-22T12:15:51.078Z,160
2019-02-22T12:16:50.847Z,160
2019-02-22T12:17:50.605Z,165
2019-02-22T12:18:50.847Z,165
2019-02-22T12:19:51.085Z,160
2019-02-22T12:20:51.333Z,145
2019-02-22T12:21:51.090Z,125
2019-02-22T12:22:50.857Z,115
2019-02-22T12:23:52.843Z,115
2019-02-22T12:24:51.319Z,115
2019-02-22T12:25:51.806Z,125
2019-02-22T12:26:51.333Z,120
2019-02-22T12:27:51.314Z,130
2019-02-22T12:28:50.833Z,135
2019-02-22T12:29:50.828Z,130
2019-02-22T12:30:50.613Z,130
2019-02-22T12:31:51.383Z,130
2019-02-22T12:32:51.087Z,125
2019-02-22T12:33:51.292Z,125
2019-02-22T12:34:51.123Z,125
2019-02-22T12:35:51.316Z,125
2019-02-22T12:36:50.331Z,120
2019-02-22T12:37:51.142Z,120
2019-02-22T12:38:50.800Z,120
2019-02-22T12:39:51.025Z,115
2019-02-22T12:40:51.042Z,115
2019-02-22T12:41:50.572Z,115
2019-02-22T12:42:51.117Z,120
2019-02-22T12:43:51.331Z,120
2019-02-22T12:45:02.161Z,120
2019-02-22T12:45:50.569Z,115
2019-02-22T12:46:51.026Z,115
2019-02-22T12:47:51.297Z,110
2019-02-22T12:48:50.778Z,105
2019-02-22T12:49:50.508Z,100
2019-02-22T12:50:50.775Z,100
2019-02-22T12:51:51.266Z,100
2019-02-22T12:52:50.780Z,95
2019-02-22T12:53:51.062Z,95
2019-02-22T12:54:51.103Z,90
2019-02-22T12:55:51.169Z,90
2019-02-22T12:57:06.537Z,90
2019-02-22T12:57:50.601Z,95
2019-02-22T12:58:51.245Z,95
2019-02-22T12:59:50.745Z,95
2019-02-22T13:00:50.780Z,95
2019-02-22T13:01:51.049Z,100
2019-02-22T13:03:01.179Z,100
2019-02-22T13:03:50.294Z,105
2019-02-22T13:04:50.733Z,105
2019-02-22T13:05:51.213Z,105
2019-02-22T13:06:51.027Z,110
2019-02-22T13:07:52.597Z,110
2019-02-22T13:08:50.722Z,110
2019-02-22T13:09:51.195Z,105
2019-02-22T13:10:51.193Z,105
2019-02-22T13:11:51.228Z,105
2019-02-22T13:12:50.950Z,100
2019-02-22T13:13:50.946Z,100
2019-02-22T13:14:50.938Z,100
2019-02-22T13:15:50.699Z,100
2019-02-22T13:16:51.193Z,100
2019-02-22T13:17:51.200Z,105
2019-02-22T13:18:50.704Z,110
2019-02-22T13:19:51.199Z,110
2019-02-22T13:20:53.132Z,115
2019-02-22T13:21:50.716Z,120
2019-02-22T13:22:50.939Z,125
2019-02-22T13:23:51.161Z,130
2019-02-22T13:24:50.697Z,140
2019-02-22T13:25:50.964Z,145
2019-02-22T13:26:51.172Z,145
2019-02-22T13:27:50.905Z,150
2019-02-22T13:28:50.916Z,150
2019-02-22T13:29:50.639Z,155
2019-02-22T13:30:50.663Z,155
2019-02-22T13:31:53.227Z,160
2019-02-22T13:32:51.154Z,160
2019-02-22T13:33:50.887Z,165
2019-02-22T13:34:50.956Z,165
2019-02-22T13:35:50.435Z,160
2019-02-22T13:36:50.931Z,160
2019-02-22T13:37:50.402Z,160
2019-02-22T13:38:50.659Z,160
2019-02-22T13:39:50.883Z,160
2019-02-22T13:40:54.543Z,160
2019-02-22T13:41:50.632Z,160
2019-02-22T13:42:51.160Z,160
2019-02-22T13:43:50.855Z,160
2019-02-22T13:44:50.627Z,160
2019-02-22T13:45:50.864Z,165
2019-02-22T13:46:50.316Z,165
2019-02-22T13:47:50.634Z,165
2019-02-22T13:48:51.008Z,170
2019-02-22T13:49:50.628Z,170
2019-02-22T13:50:50.608Z,170
2019-02-22T13:51:50.355Z,170
2019-02-22T13:52:50.985Z,175
2019-02-22T13:53:50.837Z,180
2019-02-22T13:54:54.008Z,175
2019-02-22T13:55:50.605Z,175
2019-02-22T13:56:51.122Z,175
2019-02-22T13:57:50.831Z,175
2019-02-22T13:58:51.083Z,175
2019-02-22T13:59:52.979Z,175
2019-02-22T14:00:51.063Z,175
2019-02-22T14:01:50.604Z,165
2019-02-22T14:02:50.769Z,165
2019-02-22T14:03:50.571Z,165
2019-02-22T14:04:50.319Z,165
2019-02-22T14:05:50.822Z,165
2019-02-22T14:06:50.837Z,165
2019-02-22T14:07:50.800Z,165
2019-02-22T14:08:51.913Z,165
2019-02-22T14:09:50.799Z,165
2019-02-22T14:10:51.030Z,165
2019-02-22T14:11:50.803Z,160
2019-02-22T14:12:50.798Z,155
2019-02-22T14:13:50.795Z,150
2019-02-22T14:14:50.804Z,140
2019-02-22T14:15:50.785Z,140
2019-02-22T14:16:51.053Z,135
2019-02-22T14:17:52.973Z,130